BERRYESSA (BER)

Elevation: 456' · PUTAH CR basin · Operator: US Bureau of Reclamation

Provisional data, subject to change.
Query executed Tuesday at 2:01:23   clock

Select a sensor type for a plot of data.
Note: Reservoir Flows are daily averages.

Earlier

Date RES ELE    STORAGE    OUTFLOW    INFLOW    PPT INC   
 FEET   AF   CFS   CFS   INCHES  
12/29/2014 408.24 1001843 120 288 0.00
12/30/2014 408.24 1001843 120 125 0.00
12/31/2014 408.20 1001216 120 -124 0.00
01/01/2015 408.18 1000903 120 32 0.00
01/02/2015 408.24 1001843 113 639 0.00
01/03/2015 408.23 1001686 110 48 0.00
01/04/2015 408.24 1001843 110 206 0.00
01/05/2015 408.23 1001686 110 48 0.00
01/06/2015 408.26 1002157 110 359 0.00
01/07/2015 408.26 1002157 116 133 0.00
01/08/2015 408.29 1002627 120 374 0.00
01/09/2015 408.23 1001686 145 -317 0.00
01/10/2015 408.58 1007177 144 2918 0.00
01/11/2015 408.26 1002157 140 -2379 0.00
01/12/2015 408.26 1002157 130 147 0.00
01/13/2015 408.25 1002000 109 47 0.00
01/14/2015 408.23 1001686 80 -49 0.00
01/15/2015 408.29 1002627 80 571 0.00
01/16/2015 408.27 1002313 97 -61 0.00
01/17/2015 408.25 1002000 163 5 0.00
01/18/2015 408.20 1001216 180 -203 0.00
01/19/2015 408.25 1002000 155 556 0.00
01/20/2015 408.25 1002000 126 161 0.00
01/21/2015 408.24 1001843 120 64 0.00
01/22/2015 408.19 1001060 120 -246 0.00
01/23/2015 408.19 1001060 120 143 0.00
01/24/2015 408.15 1000433 120 -161 0.00
01/25/2015 408.15 1000433 120 190 0.00
01/26/2015 -- -- -- -- --
01/27/2015 -- -- -- -- --

Later | Latest

Warning! This data is preliminary and subject to revision.

Show BER Map | Plot BER Data | 1 Month BER Data | Real-Time BER Data | BER Info